createdAt,value
2023-09-30T00:02:22.614Z,9.85
2023-09-30T00:04:50.812Z,11.88
2023-09-30T00:07:17.620Z,11.90
2023-09-30T00:09:44.478Z,9.50
2023-09-30T00:12:11.165Z,13.13
2023-09-30T00:14:38.000Z,9.60
2023-09-30T00:17:04.865Z,11.05
2023-09-30T00:19:31.794Z,6.40
2023-09-30T00:21:59.903Z,11.30
2023-09-30T00:24:26.799Z,11.80
2023-09-30T00:26:53.475Z,10.13
2023-09-30T00:29:20.175Z,12.23
2023-09-30T00:31:46.833Z,11.45
2023-09-30T00:34:13.582Z,9.68
2023-09-30T00:36:40.572Z,9.23
2023-09-30T00:39:09.491Z,8.90
2023-09-30T00:41:36.438Z,9.63
2023-09-30T00:44:03.238Z,9.60
2023-09-30T00:46:31.877Z,10.20
2023-09-30T00:49:00.270Z,9.93
2023-09-30T00:51:27.526Z,9.07
2023-09-30T00:53:59.638Z,8.48
2023-09-30T00:56:30.406Z,15.85
2023-09-30T00:58:57.349Z,9.85
2023-09-30T01:01:24.424Z,10.10
2023-09-30T01:03:51.501Z,12.48
2023-09-30T01:06:18.343Z,13.60
2023-09-30T01:08:45.685Z,12.38
2023-09-30T01:11:13.520Z,11.50
2023-09-30T01:13:41.617Z,15.00
2023-09-30T01:16:09.992Z,12.18
2023-09-30T01:18:37.552Z,12.50
2023-09-30T01:21:05.829Z,12.07
2023-09-30T01:23:34.508Z,14.63
2023-09-30T01:26:02.799Z,14.77
2023-09-30T01:28:29.479Z,11.07
2023-09-30T01:30:56.212Z,12.35
2023-09-30T01:33:22.950Z,12.50
2023-09-30T01:35:49.884Z,10.07
2023-09-30T01:38:16.633Z,11.45
2023-09-30T01:40:44.813Z,17.65
2023-09-30T01:43:11.505Z,13.95
2023-09-30T01:45:38.301Z,14.73
2023-09-30T01:48:05.503Z,12.05
2023-09-30T01:50:32.272Z,9.57
2023-09-30T01:53:01.082Z,12.93
2023-09-30T01:55:27.746Z,10.65
2023-09-30T01:57:55.801Z,11.73
2023-09-30T02:00:22.687Z,10.20
2023-09-30T02:02:49.501Z,11.05
2023-09-30T02:05:16.319Z,11.55
2023-09-30T02:07:43.113Z,11.05
2023-09-30T02:10:10.434Z,13.30
2023-09-30T02:12:37.245Z,12.25
2023-09-30T02:15:06.589Z,11.65
2023-09-30T02:17:33.425Z,9.95
2023-09-30T02:20:00.190Z,11.80
2023-09-30T02:22:26.874Z,8.55
2023-09-30T02:24:53.935Z,12.57
2023-09-30T02:27:20.693Z,10.93
2023-09-30T02:29:47.505Z,12.05
2023-09-30T02:32:15.580Z,10.85
2023-09-30T02:34:42.251Z,10.60
2023-09-30T02:37:09.108Z,15.45
2023-09-30T02:39:35.798Z,17.88
2023-09-30T02:42:03.517Z,26.50
2023-09-30T02:44:30.284Z,20.73
2023-09-30T02:46:56.950Z,25.17
2023-09-30T02:49:25.014Z,13.98
2023-09-30T02:51:51.687Z,26.00
2023-09-30T02:54:18.604Z,21.63
2023-09-30T02:56:45.334Z,17.60
2023-09-30T02:59:11.992Z,21.02
2023-09-30T03:01:38.860Z,32.22
2023-09-30T03:04:07.411Z,26.10
2023-09-30T03:06:37.149Z,12.65
2023-09-30T03:09:04.098Z,24.90
2023-09-30T03:11:30.835Z,22.52
2023-09-30T03:13:57.730Z,30.23
2023-09-30T03:16:25.139Z,35.97
2023-09-30T03:18:52.180Z,20.13
2023-09-30T03:21:18.926Z,16.00
2023-09-30T03:23:47.068Z,24.33
2023-09-30T03:26:13.729Z,11.88
2023-09-30T03:28:40.814Z,10.57
2023-09-30T03:31:07.649Z,20.63
2023-09-30T03:33:35.253Z,26.38
2023-09-30T03:36:02.194Z,20.70
2023-09-30T03:38:29.170Z,19.67
2023-09-30T03:40:57.206Z,46.45
2023-09-30T03:43:24.018Z,45.38
2023-09-30T03:45:50.738Z,49.20
2023-09-30T03:48:17.643Z,35.70
2023-09-30T03:50:44.541Z,36.33
2023-09-30T03:53:11.387Z,36.80
2023-09-30T03:55:38.601Z,22.65
2023-09-30T03:58:06.656Z,13.27
2023-09-30T04:00:33.518Z,31.50
2023-09-30T04:03:00.468Z,19.83
2023-09-30T04:05:27.413Z,30.88
2023-09-30T04:07:54.143Z,26.63
2023-09-30T04:10:22.130Z,33.33
2023-09-30T04:12:49.004Z,20.77
2023-09-30T04:15:17.200Z,23.40
2023-09-30T04:17:43.889Z,13.30
2023-09-30T04:20:13.887Z,13.63
2023-09-30T04:22:40.601Z,21.85
2023-09-30T04:25:08.444Z,27.05
2023-09-30T04:27:35.220Z,25.00
2023-09-30T04:30:01.976Z,19.52
2023-09-30T04:32:30.478Z,16.85
2023-09-30T04:34:57.306Z,9.15
2023-09-30T04:37:24.022Z,21.17
2023-09-30T04:39:50.867Z,12.07
2023-09-30T04:42:17.817Z,13.27
2023-09-30T04:44:44.944Z,11.52
2023-09-30T04:47:11.826Z,9.05
2023-09-30T04:49:40.103Z,11.55
2023-09-30T04:52:06.812Z,10.65
2023-09-30T04:54:33.655Z,9.85
2023-09-30T04:57:00.397Z,11.23
2023-09-30T04:59:27.138Z,11.63
2023-09-30T05:01:53.912Z,14.43
2023-09-30T05:04:20.695Z,16.27
2023-09-30T05:06:49.004Z,15.20
2023-09-30T05:09:15.772Z,13.80
2023-09-30T05:11:42.511Z,15.60
2023-09-30T05:14:09.246Z,15.50
2023-09-30T05:16:36.731Z,22.17
2023-09-30T05:19:03.599Z,15.38
2023-09-30T05:21:30.471Z,19.20
2023-09-30T05:23:58.600Z,17.15
2023-09-30T05:26:25.553Z,15.75
2023-09-30T05:28:52.226Z,16.80
2023-09-30T05:31:19.041Z,15.45
2023-09-30T05:33:45.932Z,14.80
2023-09-30T05:36:12.582Z,17.80
2023-09-30T05:38:39.321Z,16.50
2023-09-30T05:41:07.324Z,14.98
2023-09-30T05:43:34.104Z,15.90
2023-09-30T05:46:02.453Z,16.33
2023-09-30T05:48:32.450Z,14.75
2023-09-30T05:50:59.271Z,29.52
2023-09-30T05:53:26.078Z,73.10
2023-09-30T05:55:52.927Z,28.23
2023-09-30T05:58:21.033Z,16.00
2023-09-30T06:00:48.045Z,26.17
2023-09-30T06:03:14.866Z,21.80
2023-09-30T06:05:42.450Z,17.17
2023-09-30T06:08:10.621Z,59.30
2023-09-30T06:10:37.429Z,29.80
2023-09-30T06:13:04.482Z,33.10
2023-09-30T06:15:32.583Z,20.23
2023-09-30T06:17:59.472Z,14.93
2023-09-30T06:20:27.044Z,18.80
2023-09-30T06:22:55.649Z,38.63
2023-09-30T06:25:24.831Z,41.97
2023-09-30T06:27:51.766Z,34.05
2023-09-30T06:30:19.316Z,53.92
2023-09-30T06:32:47.615Z,19.02
2023-09-30T06:35:14.826Z,43.22
2023-09-30T06:37:41.837Z,32.92
2023-09-30T06:40:14.130Z,21.67
2023-09-30T06:45:09.357Z,23.75
2023-09-30T06:47:36.741Z,26.73
2023-09-30T06:50:09.757Z,52.50
2023-09-30T06:52:38.581Z,39.80
2023-09-30T06:55:06.621Z,30.25
2023-09-30T06:57:34.401Z,25.85
2023-09-30T07:00:01.127Z,30.23
2023-09-30T07:02:27.902Z,61.53
2023-09-30T07:04:54.649Z,38.30
2023-09-30T07:07:22.715Z,25.77
2023-09-30T07:09:49.485Z,22.77
2023-09-30T07:12:16.438Z,24.17
2023-09-30T07:14:43.130Z,25.80
2023-09-30T07:17:09.829Z,22.60
2023-09-30T07:19:37.547Z,20.45
2023-09-30T07:22:05.027Z,23.10
2023-09-30T07:24:33.466Z,26.88
2023-09-30T07:27:00.853Z,21.85
2023-09-30T07:29:29.713Z,27.60
2023-09-30T07:31:56.489Z,23.88
2023-09-30T07:34:23.343Z,22.23
2023-09-30T07:36:50.148Z,23.73
2023-09-30T07:39:16.891Z,22.75
2023-09-30T07:41:45.091Z,23.23
2023-09-30T07:44:12.061Z,21.75
2023-09-30T07:46:38.790Z,24.75
2023-09-30T07:49:05.589Z,22.30
2023-09-30T07:51:32.294Z,20.77
2023-09-30T07:54:07.497Z,23.50
2023-09-30T07:56:47.581Z,26.27
2023-09-30T07:59:14.402Z,25.15
2023-09-30T08:01:41.197Z,29.23
2023-09-30T08:04:08.049Z,23.88
2023-09-30T08:06:34.815Z,23.98
2023-09-30T08:09:03.910Z,28.90
2023-09-30T08:11:30.722Z,25.17
2023-09-30T08:13:59.488Z,17.67
2023-09-30T08:16:26.336Z,19.90
2023-09-30T08:18:53.227Z,14.15
2023-09-30T08:21:20.192Z,19.42
2023-09-30T08:23:58.693Z,21.65
2023-09-30T08:26:25.402Z,16.60
2023-09-30T08:28:52.146Z,17.20
2023-09-30T08:31:20.387Z,15.32
2023-09-30T08:33:47.203Z,14.60
2023-09-30T08:36:14.187Z,17.42
2023-09-30T08:38:42.379Z,13.48
2023-09-30T08:41:09.298Z,15.23
2023-09-30T08:43:39.240Z,14.25
2023-09-30T08:46:06.792Z,15.68
2023-09-30T08:48:35.723Z,12.75
2023-09-30T08:51:03.435Z,16.00
2023-09-30T08:53:30.885Z,12.30
2023-09-30T08:55:58.752Z,12.82
2023-09-30T08:58:28.050Z,10.82
2023-09-30T09:00:55.138Z,9.68
2023-09-30T09:03:22.013Z,10.85
2023-09-30T09:05:56.067Z,11.05
2023-09-30T09:08:23.025Z,12.15
2023-09-30T09:10:55.746Z,10.40
2023-09-30T09:13:22.504Z,11.85
2023-09-30T09:15:49.439Z,12.07
2023-09-30T09:18:33.325Z,10.10
2023-09-30T09:21:12.408Z,10.13
2023-09-30T09:23:43.776Z,10.82
2023-09-30T09:26:11.746Z,12.60
2023-09-30T09:28:39.280Z,11.10
2023-09-30T09:31:21.481Z,10.00
2023-09-30T09:33:48.343Z,10.57
2023-09-30T09:36:16.790Z,11.55
2023-09-30T09:38:48.048Z,10.70
2023-09-30T09:41:14.990Z,9.48
2023-09-30T09:43:42.547Z,10.50
2023-09-30T09:46:09.718Z,9.55
2023-09-30T09:48:37.353Z,12.75
2023-09-30T09:51:05.457Z,14.68
2023-09-30T09:53:35.986Z,10.68
2023-09-30T09:56:04.041Z,11.63
2023-09-30T09:58:34.434Z,9.20
2023-09-30T10:01:02.329Z,6.78
2023-09-30T10:03:29.432Z,7.78
2023-09-30T10:05:56.779Z,8.48
2023-09-30T10:08:32.842Z,9.10
2023-09-30T10:11:02.672Z,7.57
2023-09-30T10:13:51.396Z,8.32
2023-09-30T10:16:48.096Z,9.25
2023-09-30T10:19:16.397Z,9.50
2023-09-30T10:22:23.931Z,8.05
2023-09-30T10:24:51.922Z,7.30
2023-09-30T10:27:36.325Z,8.55
2023-09-30T10:30:11.178Z,9.10
2023-09-30T10:33:17.040Z,9.38
2023-09-30T10:35:48.994Z,8.75
2023-09-30T10:38:40.569Z,6.88
2023-09-30T10:41:10.464Z,9.77
2023-09-30T10:43:40.064Z,8.77
2023-09-30T10:46:33.527Z,10.10
2023-09-30T10:49:16.294Z,7.00
2023-09-30T10:51:43.514Z,7.78
2023-09-30T10:54:13.460Z,7.50
2023-09-30T10:56:40.211Z,7.20
2023-09-30T10:59:08.374Z,7.20
2023-09-30T11:01:36.171Z,8.45
2023-09-30T11:04:05.033Z,7.45
2023-09-30T11:06:32.485Z,6.40
2023-09-30T11:09:01.241Z,9.00
2023-09-30T11:11:38.632Z,6.38
2023-09-30T11:14:19.371Z,9.77
2023-09-30T11:16:46.629Z,7.80
2023-09-30T11:19:13.752Z,6.63
2023-09-30T11:21:40.958Z,9.75
2023-09-30T11:24:09.088Z,7.45
2023-09-30T11:26:38.443Z,6.55
2023-09-30T11:29:07.287Z,7.28
2023-09-30T11:31:38.481Z,5.60
2023-09-30T11:34:05.529Z,10.13
2023-09-30T11:36:32.395Z,7.03
2023-09-30T11:39:01.275Z,8.32
2023-09-30T11:41:34.751Z,5.47
2023-09-30T11:44:06.993Z,5.45
2023-09-30T11:46:48.823Z,5.07
2023-09-30T11:49:25.816Z,5.13
2023-09-30T11:51:52.713Z,4.63
2023-09-30T11:54:19.767Z,6.88
2023-09-30T11:56:46.451Z,5.93
2023-09-30T11:59:13.168Z,6.22
2023-09-30T12:01:41.274Z,6.20
2023-09-30T12:04:08.284Z,5.50
2023-09-30T12:06:35.105Z,4.68
2023-09-30T12:09:01.906Z,6.55
2023-09-30T12:11:28.687Z,5.30
2023-09-30T12:13:55.405Z,6.50
2023-09-30T12:16:22.178Z,6.93
2023-09-30T12:18:50.363Z,8.02
2023-09-30T12:21:17.092Z,8.02
2023-09-30T12:23:43.808Z,6.15
2023-09-30T12:26:14.362Z,7.10
2023-09-30T12:28:42.734Z,7.78
2023-09-30T12:31:09.461Z,10.48
2023-09-30T12:33:36.320Z,6.90
2023-09-30T12:36:05.093Z,5.32
2023-09-30T12:38:31.865Z,4.88
2023-09-30T12:40:58.770Z,5.82
2023-09-30T12:43:25.628Z,5.43
2023-09-30T12:45:52.409Z,4.85
2023-09-30T12:48:19.221Z,4.47
2023-09-30T12:50:46.047Z,4.95
2023-09-30T12:53:14.920Z,6.38
2023-09-30T12:55:42.113Z,4.75
2023-09-30T12:58:08.959Z,5.13
2023-09-30T13:00:35.917Z,6.97
2023-09-30T13:03:03.109Z,5.18
2023-09-30T13:05:30.236Z,4.95
2023-09-30T13:07:57.169Z,4.15
2023-09-30T13:10:25.724Z,4.18
2023-09-30T13:12:52.954Z,4.82
2023-09-30T13:15:20.229Z,3.75
2023-09-30T13:17:47.022Z,5.38
2023-09-30T13:20:13.920Z,4.55
2023-09-30T13:22:40.671Z,4.90
2023-09-30T13:25:08.693Z,5.38
2023-09-30T13:27:37.015Z,6.07
2023-09-30T13:30:04.494Z,6.45
2023-09-30T13:32:31.299Z,6.72
2023-09-30T13:34:58.350Z,4.18
2023-09-30T13:37:25.043Z,4.57
2023-09-30T13:39:51.775Z,8.85
2023-09-30T13:42:18.540Z,5.55
2023-09-30T13:44:46.716Z,3.85
2023-09-30T13:47:16.187Z,4.78
2023-09-30T13:49:43.092Z,4.60
2023-09-30T13:52:09.891Z,5.18
2023-09-30T13:54:36.840Z,4.68
2023-09-30T13:57:03.925Z,5.15
2023-09-30T13:59:30.697Z,5.35
2023-09-30T14:01:59.021Z,4.22
2023-09-30T14:04:25.704Z,3.50
2023-09-30T14:06:52.495Z,3.70
2023-09-30T14:09:29.638Z,3.53
2023-09-30T14:12:02.594Z,4.63
2023-09-30T14:14:29.304Z,5.57
2023-09-30T14:16:56.056Z,4.32
2023-09-30T14:19:24.185Z,4.82
2023-09-30T14:21:51.001Z,4.43
2023-09-30T14:24:17.817Z,3.90
2023-09-30T14:26:44.848Z,6.43
2023-09-30T14:29:11.742Z,4.20
2023-09-30T14:31:38.688Z,4.55
2023-09-30T14:34:05.490Z,3.72
2023-09-30T14:36:33.687Z,5.40
2023-09-30T14:39:13.981Z,2.95
2023-09-30T14:41:41.956Z,4.63
2023-09-30T14:44:09.292Z,4.63
2023-09-30T14:46:36.195Z,3.75
2023-09-30T14:49:03.194Z,4.85
2023-09-30T14:51:32.772Z,4.57
2023-09-30T14:53:59.538Z,3.90
2023-09-30T14:56:26.678Z,4.63
2023-09-30T14:58:53.496Z,5.93
2023-09-30T15:01:20.269Z,4.28
2023-09-30T15:03:47.141Z,3.30
2023-09-30T15:06:14.015Z,7.15
2023-09-30T15:08:42.171Z,5.80
2023-09-30T15:11:14.034Z,3.83
2023-09-30T15:13:40.868Z,4.53
2023-09-30T15:16:14.862Z,3.85
2023-09-30T15:18:41.749Z,3.83
2023-09-30T15:21:08.493Z,5.38
2023-09-30T15:23:35.344Z,5.20
2023-09-30T15:26:03.421Z,5.70
2023-09-30T15:28:30.072Z,5.50
2023-09-30T15:30:57.672Z,4.90
2023-09-30T15:33:24.591Z,4.95
2023-09-30T15:35:51.378Z,5.45
2023-09-30T15:38:18.831Z,38.22
2023-09-30T15:40:52.947Z,4.80
2023-09-30T15:43:21.195Z,4.78
2023-09-30T15:45:48.168Z,5.72
2023-09-30T15:48:15.076Z,4.18
2023-09-30T15:50:41.764Z,4.43
2023-09-30T15:53:08.575Z,4.75
2023-09-30T15:55:35.366Z,5.72
2023-09-30T15:58:02.357Z,5.53
2023-09-30T16:00:30.559Z,5.63
2023-09-30T16:02:57.555Z,4.07
2023-09-30T16:05:24.494Z,29.60
2023-09-30T16:07:51.354Z,78.25
2023-09-30T16:10:18.123Z,28.40
2023-09-30T16:12:45.027Z,54.53
2023-09-30T16:15:11.850Z,16.63
2023-09-30T16:17:40.171Z,21.38
2023-09-30T16:20:08.104Z,11.70
2023-09-30T16:22:34.955Z,9.80
2023-09-30T16:25:01.760Z,8.38
2023-09-30T16:27:28.810Z,6.95
2023-09-30T16:29:55.609Z,8.95
2023-09-30T16:32:22.330Z,7.53
2023-09-30T16:34:50.571Z,6.43
2023-09-30T16:37:17.475Z,6.50
2023-09-30T16:39:44.512Z,8.82
2023-09-30T16:42:11.250Z,4.80
2023-09-30T16:44:38.014Z,12.50
2023-09-30T16:47:04.749Z,13.38
2023-09-30T16:49:32.822Z,6.50
2023-09-30T16:52:01.168Z,5.57
2023-09-30T16:54:27.849Z,7.13
2023-09-30T16:56:54.528Z,6.43
2023-09-30T16:59:21.228Z,5.18
2023-09-30T17:01:48.032Z,4.22
2023-09-30T17:04:14.913Z,5.57
2023-09-30T17:06:41.822Z,5.38
2023-09-30T17:09:09.873Z,6.00
2023-09-30T17:11:36.698Z,4.47
2023-09-30T17:14:03.537Z,5.63
2023-09-30T17:16:30.414Z,4.55
2023-09-30T17:18:57.504Z,8.45
2023-09-30T17:21:24.396Z,4.93
2023-09-30T17:23:51.136Z,4.57
2023-09-30T17:26:19.419Z,5.97
2023-09-30T17:28:47.444Z,5.05
2023-09-30T17:31:15.887Z,6.45
2023-09-30T17:33:42.880Z,11.10
2023-09-30T17:36:09.921Z,6.90
2023-09-30T17:38:37.211Z,5.78
2023-09-30T17:41:05.189Z,7.40
2023-09-30T17:43:33.470Z,11.52
2023-09-30T17:46:07.688Z,6.70
2023-09-30T17:48:34.516Z,9.88
2023-09-30T17:51:01.397Z,7.93
2023-09-30T17:53:28.096Z,8.88
2023-09-30T17:55:55.154Z,7.35
2023-09-30T17:58:21.757Z,8.55
2023-09-30T18:00:50.908Z,6.95
2023-09-30T18:03:17.853Z,13.40
2023-09-30T18:05:44.683Z,6.30
2023-09-30T18:08:11.458Z,9.35
2023-09-30T18:10:38.153Z,8.38
2023-09-30T18:13:04.887Z,5.50
2023-09-30T18:15:31.809Z,8.63
2023-09-30T18:18:11.404Z,6.90
2023-09-30T18:20:39.937Z,6.47
2023-09-30T18:23:06.764Z,7.25
2023-09-30T18:25:33.511Z,10.20
2023-09-30T18:28:00.694Z,11.60
2023-09-30T18:30:27.550Z,10.38
2023-09-30T18:32:54.328Z,7.13
2023-09-30T18:35:22.494Z,7.03
2023-09-30T18:37:49.246Z,6.55
2023-09-30T18:40:15.993Z,9.10
2023-09-30T18:42:42.849Z,9.15
2023-09-30T18:45:10.403Z,6.50
2023-09-30T18:47:37.160Z,6.32
2023-09-30T18:50:04.358Z,7.50
2023-09-30T18:52:32.510Z,6.75
2023-09-30T18:54:59.268Z,6.38
2023-09-30T18:57:25.954Z,7.07
2023-09-30T18:59:52.712Z,9.73
2023-09-30T19:02:19.364Z,8.80
2023-09-30T19:04:46.091Z,6.78
2023-09-30T19:07:12.863Z,7.05
2023-09-30T19:09:41.046Z,8.15
2023-09-30T19:12:07.816Z,8.15
2023-09-30T19:14:34.435Z,6.63
2023-09-30T19:17:01.239Z,6.18
2023-09-30T19:19:28.167Z,7.03
2023-09-30T19:21:54.908Z,4.88
2023-09-30T19:24:21.547Z,9.70
2023-09-30T19:26:49.556Z,7.15
2023-09-30T19:29:16.216Z,5.22
2023-09-30T19:31:42.937Z,7.65
2023-09-30T19:34:09.829Z,6.32
2023-09-30T19:36:36.518Z,7.45
2023-09-30T19:39:03.290Z,8.23
2023-09-30T19:41:29.990Z,9.05
2023-09-30T19:43:58.279Z,6.18
2023-09-30T19:46:25.349Z,6.55
2023-09-30T19:48:52.101Z,7.25
2023-09-30T19:51:25.176Z,6.75
2023-09-30T19:53:51.916Z,7.10
2023-09-30T19:56:18.611Z,6.65
2023-09-30T19:58:45.916Z,6.40
2023-09-30T20:01:14.107Z,7.40
2023-09-30T20:03:41.093Z,7.30
2023-09-30T20:06:18.340Z,7.75
2023-09-30T20:08:44.994Z,6.38
2023-09-30T20:11:18.175Z,4.97
2023-09-30T20:13:44.893Z,7.85
2023-09-30T20:16:11.589Z,5.50
2023-09-30T20:18:39.691Z,8.30
2023-09-30T20:21:06.487Z,6.88
2023-09-30T20:23:33.152Z,10.75
2023-09-30T20:25:59.960Z,7.65
2023-09-30T20:28:26.598Z,7.70
2023-09-30T20:30:53.423Z,7.53
2023-09-30T20:33:20.219Z,8.68
2023-09-30T20:35:48.805Z,6.47
2023-09-30T20:38:15.457Z,6.72
2023-09-30T20:40:42.214Z,9.52
2023-09-30T20:43:08.965Z,7.20
2023-09-30T20:45:35.881Z,8.02
2023-09-30T20:48:03.455Z,12.63
2023-09-30T20:50:30.234Z,9.57
2023-09-30T20:52:59.782Z,11.40
2023-09-30T20:55:26.846Z,10.90
2023-09-30T20:57:53.628Z,7.93
2023-09-30T21:00:20.506Z,9.05
2023-09-30T21:02:47.444Z,7.35
2023-09-30T21:05:14.652Z,9.85
2023-09-30T21:07:41.362Z,8.10
2023-09-30T21:10:10.405Z,8.88
2023-09-30T21:12:37.098Z,6.95
2023-09-30T21:15:06.390Z,8.15
2023-09-30T21:17:33.465Z,9.18
2023-09-30T21:20:00.222Z,7.13
2023-09-30T21:22:26.920Z,7.97
2023-09-30T21:24:53.624Z,11.15
2023-09-30T21:27:21.809Z,8.25
2023-09-30T21:29:48.428Z,9.23
2023-09-30T21:32:15.566Z,8.93
2023-09-30T21:34:42.314Z,7.93
2023-09-30T21:37:09.159Z,9.25
2023-09-30T21:39:35.993Z,9.13
2023-09-30T21:42:02.796Z,9.02
2023-09-30T21:44:30.908Z,9.77
2023-09-30T21:46:57.686Z,9.32
2023-09-30T21:49:24.326Z,8.93
2023-09-30T21:51:51.118Z,9.82
2023-09-30T21:54:17.850Z,8.15
2023-09-30T21:56:44.596Z,11.30
2023-09-30T21:59:11.279Z,9.05
2023-09-30T22:01:39.584Z,7.53
2023-09-30T22:04:06.578Z,8.75
2023-09-30T22:06:33.439Z,8.23
2023-09-30T22:09:00.421Z,7.80
2023-09-30T22:11:27.316Z,9.15
2023-09-30T22:13:54.064Z,9.68
2023-09-30T22:16:20.952Z,8.38
2023-09-30T22:18:49.152Z,7.90
2023-09-30T22:21:16.098Z,10.02
2023-09-30T22:23:42.762Z,11.75
2023-09-30T22:26:09.456Z,10.98
2023-09-30T22:28:36.084Z,10.35
2023-09-30T22:31:02.869Z,10.63
2023-09-30T22:33:29.743Z,9.60
2023-09-30T22:35:57.857Z,12.45
2023-09-30T22:38:24.533Z,14.25
2023-09-30T22:40:51.143Z,12.00
2023-09-30T22:43:17.900Z,9.95
2023-09-30T22:45:44.694Z,9.60
2023-09-30T22:48:11.549Z,8.52
2023-09-30T22:50:38.275Z,9.45
2023-09-30T22:53:07.253Z,9.50
2023-09-30T22:55:34.208Z,9.05
2023-09-30T22:58:01.642Z,11.68
2023-09-30T23:00:29.009Z,14.55
2023-09-30T23:02:56.325Z,10.57
2023-09-30T23:05:23.637Z,11.65
2023-09-30T23:07:50.331Z,11.13
2023-09-30T23:10:18.579Z,13.05
2023-09-30T23:12:45.744Z,9.88
2023-09-30T23:15:15.159Z,15.73
2023-09-30T23:17:45.057Z,10.43
2023-09-30T23:20:13.704Z,13.07
2023-09-30T23:22:41.100Z,13.48
2023-09-30T23:25:08.796Z,10.85
2023-09-30T23:27:36.895Z,11.90
2023-09-30T23:30:04.179Z,10.25
2023-09-30T23:32:30.808Z,12.65
2023-09-30T23:34:57.535Z,11.63
2023-09-30T23:37:24.248Z,11.25
2023-09-30T23:39:50.919Z,11.05
2023-09-30T23:42:17.706Z,8.18
2023-09-30T23:44:45.846Z,10.65
2023-09-30T23:47:12.808Z,10.60
2023-09-30T23:49:39.718Z,13.40
2023-09-30T23:52:06.696Z,11.32
2023-09-30T23:54:33.395Z,11.65
2023-09-30T23:57:00.170Z,11.07
2023-09-30T23:59:26.893Z,11.60
